Hlavní strana
METAR-TAF:

METAR-TAF

Letiště :

Atlantic, Iowa, Spojené státy americké

zeměpisná šířka: 41-24N, zeměpisná délka: 095-03W, výška: 360 m

Aktuální stav počasí

Zpráva byla vytvořena před 14 minutami, v 01:55 UTC
Severní vítr 19 kt
Teplota 0°C
Vlhkost vzduchu 80%
Tlak 1025 hPa
Viditelnost: 16.1 km
Polojasno ve výšce 3200 ft
Polojasno ve výšce 3800 ft
Oblačno až skoro zataženo ve výšce 12000 ft

METAR: KAIO 260155Z AUTO 01019KT 10SM SCT032 SCT038 BKN120 M00/M03 A3027 RMK AO2

Čas: 20:09 (02:09 UTC)


TAF: chybějící

Stav a předpovědi počasí z více než 4 000 letišť (zprávy METAR a TAF).

Červené a žluté tečky na mapě představují dostupné meteorologické stanice.

Když kurzor umístíte na tečku, zobrazí se název stanice.

Pak kliknutím zobrazíte stav a předpověď počasí.

Chcete-li změnit mapu, kliknutím na zelené tlačítko se znaménkem +mapu přiblížíte, kliknutím na zelené tlačítko se znaménkem – mapu oddálíte a kliknutím na zelené šipky přejdete na sousední mapy.


METAR-TAF: